Latest Coastal Weather Observations for Friendly Beaches

IDT60701

Issued at 1:21 am EDT Monday 22 December 2014 (issued every 10 minutes, with the page automatically refreshed every 10 minutes)

About coastal observations | Map of coastal stations | Coastal observations for TAS | Marine services | Other Formats
Station Details ID: 092114 Name: FRIENDLY BEACHES Lat: -42.00 Lon: 148.28 Height: 55.0 m
Data from the previous 72 hours. | See also: Recent months at Friendly Beaches
Date/Time
EDT
Temp

°C
Wind Pressure Rain
since 9am
mm
Weather Cloud Vis
km
Sea
Height
m
Swell
Dir
 
Speed
knots
Gust
knots
hPa Trend Height
m
Period
s
Dir
22/01:00am 14.3 SE 5 8 1013.9 - 0.0 - - - - - - -
22/12:30am 14.6 SSE 3 6 1013.6 - 0.0 - - - - - - -
22/12:00am 14.9 SE 5 11 1013.5 - 0.0 - - - - - - -
 
Date/Time
EDT
Temp

°C
Wind Pressure Rain
since 9am
mm
Weather Cloud Vis
km
Sea
Height
m
Swell
Dir
 
Speed
knots
Gust
knots
hPa Trend Height
m
Period
s
Dir
21/11:30pm 15.7 S 1 3 1013.5 - 0.0 - - - - - - -
21/11:00pm 16.1 NW 3 4 1013.2 - 0.0 - - - - - - -
21/10:30pm 16.9 WNW 5 8 1012.9 - 0.0 - - - - - - -
21/10:00pm 18.2 SW 7 11 1012.5 - 0.0 - - - - - - -
21/09:30pm 18.8 SW 6 9 1012.0 - 0.0 - - - - - - -
21/09:00pm 20.1 SW 7 12 1011.3 - 0.0 - - - - - - -
21/08:30pm 21.5 WSW 7 10 1010.3 - 0.0 - - - - - - -
21/08:00pm 23.1 WSW 8 13 1009.8 - 0.0 - - - - - - -
21/07:30pm 24.0 W 8 13 1009.2 - 0.0 - - - - - - -
21/07:00pm 24.7 WNW 11 19 1008.9 - 0.0 - - - - - - -
21/06:30pm 25.1 WNW 8 15 1008.7 - 0.0 - - - - - - -
21/06:00pm 25.3 WNW 7 17 1008.5 - 0.0 - - - - - - -
21/05:30pm 25.0 W 7 14 1008.6 - 0.0 - - - - - - -
21/05:00pm 25.1 WNW 15 27 1008.3 - 0.0 - - - - - - -
21/04:59pm 25.2 WNW 15 27 1008.3 - 0.0 - - - - - - -
21/04:30pm 25.8 WNW 10 22 1008.3 - 0.0 - - - - - - -
21/04:00pm 25.1 NNW 10 21 1008.5 - 0.0 - - - - - - -
21/03:30pm 23.7 N 8 14 1008.8 - 0.0 - - - - - - -
21/03:00pm 20.0 NNE 15 22 1009.4 - 0.0 - - - - - - -
21/02:30pm 21.1 NNE 17 25 1009.9 - 0.0 - - - - - - -
21/02:00pm 21.5 NNE 19 30 1010.3 - 0.0 - - - - - - -
21/01:31pm 21.5 NNE 17 28 1010.8 - 0.0 - - - - - - -
21/01:30pm 21.5 NNE 18 28 1010.8 - 0.0 - - - - - - -
21/01:14pm 22.4 NNE 15 26 1011.1 - 0.0 - - - - - - -
21/01:00pm 21.3 NNE 15 22 1011.4 - 0.0 - - - - - - -
21/12:30pm 20.4 NNE 16 22 1011.8 - 0.0 - - - - - - -
21/12:00pm 22.2 NE 14 20 1012.2 - 0.0 - - - - - - -
21/11:30am 21.8 NE 13 19 1013.1 - 0.0 - - - - - - -
21/11:00am 20.5 NNE 12 18 1013.6 - 0.0 - - - - - - -
21/10:30am 20.2 NE 10 15 1014.1 - 0.0 - - - - - - -
21/10:00am 19.9 NE 9 15 1014.2 - 0.0 - - - - - - -
21/09:30am 19.6 NE 10 15 1014.5 - 0.0 - - - - - - -
21/09:00am 19.1 NNE 9 16 1014.4 - 0.0 - - - - - - -
21/08:30am 18.1 NNE 12 15 1014.1 - 0.0 - - - - - - -
21/08:00am 17.5 NNE 9 14 1014.4 - 0.0 - - - - - - -
21/07:30am 16.7 NNE 6 13 1014.6 - 0.0 - - - - - - -
21/07:00am 15.6 N 3 7 1015.3 - 0.0 - - - - - - -
21/06:30am 14.5 NNW 3 5 1015.4 - 0.0 - - - - - - -
21/06:00am 13.9 W 1 2 1015.0 - 0.0 - - - - - - -
21/05:30am 13.7 CALM 0 0 1014.4 - 0.0 - - - - - - -
21/05:00am 13.9 CALM 0 0 1014.3 - 0.0 - - - - - - -
21/04:30am 14.0 CALM 0 0 1014.2 - 0.0 - - - - - - -
21/04:00am 14.0 ENE 3 5 1014.0 - 0.0 - - - - - - -
21/03:30am 14.1 E 4 6 1014.4 - 0.0 - - - - - - -
21/03:00am 14.1 ENE 4 5 1014.6 - 0.0 - - - - - - -
21/02:30am 14.1 ENE 3 5 1015.0 - 0.0 - - - - - - -
21/02:00am 14.1 E 4 5 1015.2 - 0.0 - - - - - - -
21/01:30am 14.1 ENE 3 4 1015.5 - 0.0 - - - - - - -
21/01:00am 14.1 ESE 4 6 1015.8 - 0.0 - - - - - - -
21/12:30am 14.1 SE 5 7 1015.9 - 0.0 - - - - - - -
21/12:00am 14.2 SE 6 8 1016.2 - 0.0 - - - - - - -
 
Date/Time
EDT
Temp

°C
Wind Pressure Rain
since 9am
mm
Weather Cloud Vis
km
Sea
Height
m
Swell
Dir
 
Speed
knots
Gust
knots
hPa Trend Height
m
Period
s
Dir
20/11:30pm 14.2 SE 8 10 1016.1 - 0.0 - - - - - - -
20/11:00pm 14.2 SE 9 11 1016.1 - 0.0 - - - - - - -
20/10:30pm 14.3 SE 10 13 1016.2 - 0.0 - - - - - - -
20/10:00pm 14.4 SE 10 13 1016.2 - 0.0 - - - - - - -
20/09:30pm 14.5 SE 10 14 1016.1 - 0.0 - - - - - - -
20/09:00pm 14.5 SE 12 17 1015.5 - 0.0 - - - - - - -
20/08:30pm 14.7 SE 12 17 1015.5 - 0.0 - - - - - - -
20/08:00pm 14.7 SE 13 17 1015.2 - 0.0 - - - - - - -
20/07:30pm 15.1 SE 13 19 1014.7 - 0.0 - - - - - - -
20/07:00pm 15.9 SE 13 19 1014.4 - 0.0 - - - - - - -
20/06:30pm 18.5 SE 13 18 1013.9 - 0.0 - - - - - - -
20/06:00pm 19.5 SE 13 17 1013.6 - 0.0 - - - - - - -
20/05:30pm 19.0 SE 13 17 1013.4 - 0.0 - - - - - - -
20/05:00pm 20.1 SE 14 17 1013.2 - 0.0 - - - - - - -
20/04:30pm 20.7 SE 15 19 1012.9 - 0.0 - - - - - - -
20/04:00pm 21.6 E 8 13 1012.7 - 0.0 - - - - - - -
20/03:30pm 22.1 E 8 11 1012.4 - 0.0 - - - - - - -
20/03:00pm 21.1 ENE 7 9 1012.2 - 0.0 - - - - - - -
20/02:30pm 20.5 ENE 7 10 1011.9 - 0.0 - - - - - - -
20/02:00pm 21.8 SE 12 15 1011.7 - 0.0 - - - - - - -
20/01:30pm 23.1 SSE 12 20 1011.3 - 0.0 - - - - - - -
20/01:00pm 22.8 WSW 11 16 1011.2 - 0.0 - - - - - - -
20/12:30pm 23.0 WSW 9 15 1011.4 - 0.0 - - - - - - -
20/12:00pm 22.0 WSW 12 18 1011.4 - 0.0 - - - - - - -
20/11:30am 22.3 WSW 9 15 1011.3 - 0.0 - - - - - - -
20/11:00am 20.2 WSW 6 12 1011.5 - 0.0 - - - - - - -
20/10:30am 20.0 W 7 14 1011.6 - 0.0 - - - - - - -
20/10:00am 19.6 WNW 7 14 1011.5 - 0.0 - - - - - - -
20/09:30am 18.2 WNW 8 14 1011.8 - 0.0 - - - - - - -
20/09:00am 17.9 WNW 8 14 1011.9 - 0.0 - - - - - - -
20/08:30am 16.2 WNW 6 11 1011.8 - 0.0 - - - - - - -
20/08:00am 15.3 NW 2 5 1011.7 - 0.0 - - - - - - -
20/07:30am 14.8 NW 4 8 1011.6 - 0.0 - - - - - - -
20/07:00am 14.7 NW 5 7 1011.4 - 0.0 - - - - - - -
20/06:30am 13.8 NW 4 7 1011.4 - 0.0 - - - - - - -
20/06:00am 12.6 CALM 0 0 1011.3 - 0.0 - - - - - - -
20/05:30am 12.8 NW 2 5 1011.3 - 0.0 - - - - - - -
20/05:00am 12.6 NNW 2 3 1011.4 - 0.0 - - - - - - -
20/04:30am 12.7 CALM 0 0 1011.4 - 0.0 - - - - - - -
20/04:00am 13.2 WNW 2 3 1011.5 - 0.0 - - - - - - -
20/03:30am 13.1 NNW 5 8 1011.6 - 0.0 - - - - - - -
20/03:00am 12.6 NW 3 5 1011.8 - 0.0 - - - - - - -
20/02:30am 12.7 NNW 4 6 1012.2 - 0.0 - - - - - - -
20/02:00am 12.3 NW 3 5 1012.6 - 0.0 - - - - - - -
20/01:30am 12.4 NNE 1 3 1012.9 - 0.0 - - - - - - -
20/01:00am 12.7 N 4 8 1013.1 - 0.0 - - - - - - -
20/12:30am 12.4 NNW 4 5 1013.6 - 0.0 - - - - - - -
20/12:00am 12.3 N 4 6 1013.8 - 0.0 - - - - - - -
 
Date/Time
EDT
Temp

°C
Wind Pressure Rain
since 9am
mm
Weather Cloud Vis
km
Sea
Height
m
Swell
Dir
 
Speed
knots
Gust
knots
hPa Trend Height
m
Period
s
Dir
19/11:30pm 12.8 NNW 4 6 1014.2 - 0.0 - - - - - - -
19/11:00pm 12.9 NNW 3 5 1014.4 - 0.0 - - - - - - -
19/10:30pm 12.8 N 3 5 1014.6 - 0.0 - - - - - - -
19/10:00pm 12.6 NNE 3 5 1014.5 - 0.0 - - - - - - -
19/09:30pm 13.5 NE 5 7 1014.4 - 0.0 - - - - - - -
19/09:00pm 13.1 ENE 5 7 1014.3 - 0.0 - - - - - - -
19/08:30pm 13.4 ENE 5 7 1014.3 - 0.0 - - - - - - -
19/08:00pm 13.9 E 6 9 1014.1 - 0.0 - - - - - - -
19/07:30pm 14.7 E 7 9 1013.9 - 0.0 - - - - - - -
19/07:00pm 16.4 E 7 9 1013.7 - 0.0 - - - - - - -
19/06:30pm 16.9 E 7 9 1013.5 - 0.0 - - - - - - -
19/06:00pm 16.2 E 7 10 1013.3 - 0.0 - - - - - - -
19/05:30pm 16.9 E 9 11 1013.2 - 0.0 - - - - - - -
19/05:00pm 17.4 E 8 11 1013.1 - 0.0 - - - - - - -
19/04:30pm 18.6 E 7 11 1013.1 - 0.0 - - - - - - -
19/04:00pm 17.0 ENE 8 11 1012.9 - 0.0 - - - - - - -
19/03:30pm 17.9 ENE 7 10 1012.7 - 0.0 - - - - - - -
19/03:00pm 19.4 E 9 12 1012.4 - 0.0 - - - - - - -
19/02:30pm 20.7 E 10 13 1012.1 - 0.0 - - - - - - -
19/02:00pm 19.5 E 9 13 1011.9 - 0.0 - - - - - - -
19/01:30pm 20.1 ESE 11 14 1011.9 - 0.0 - - - - - - -
19/01:00pm 19.9 ESE 11 14 1011.7 - 0.0 - - - - - - -
19/12:30pm 19.1 SE 11 16 1011.4 - 0.0 - - - - - - -
19/12:00pm 18.5 S 9 16 1011.2 - 0.0 - - - - - - -
19/11:30am 18.1 SSW 6 13 1011.3 - 0.0 - - - - - - -
19/11:00am 17.6 SSW 6 14 1011.6 - 0.0 - - - - - - -
19/10:30am 16.0 SSW 6 13 1011.8 - 0.0 - - - - - - -
19/10:00am 16.1 SW 9 14 1011.9 - 0.0 - - - - - - -
19/09:30am 15.8 SSW 9 15 1011.8 - 0.0 - - - - - - -
19/09:00am 14.4 SW 7 11 1011.9 - 0.0 - - - - - - -
19/08:30am 13.8 WSW 7 11 1011.7 - 0.0 - - - - - - -
19/08:00am 13.6 WSW 6 10 1011.4 - 0.0 - - - - - - -
19/07:30am 12.2 WSW 6 10 1011.3 - 0.0 - - - - - - -
19/07:00am 11.1 W 4 6 1010.8 - 0.0 - - - - - - -
19/06:30am 9.0 W 5 7 1010.3 - 0.0 - - - - - - -
19/06:00am 8.7 WNW 4 6 1009.8 - 0.0 - - - - - - -
19/05:30am 8.6 WNW 5 7 1009.6 - 0.0 - - - - - - -
19/05:00am 9.1 W 5 7 1008.9 - 0.0 - - - - - - -
19/04:30am 9.2 WNW 5 7 1008.5 - 0.0 - - - - - - -
19/04:00am 9.7 W 5 7 1008.2 - 0.0 - - - - - - -
19/03:30am 10.8 WSW 6 9 1007.9 - 0.0 - - - - - - -
19/03:00am 10.9 SW 8 12 1007.8 - 0.0 - - - - - - -
19/02:30am 11.2 WSW 8 13 1007.4 - 0.0 - - - - - - -
19/02:00am 11.0 WSW 6 9 1007.5 - 0.0 - - - - - - -
19/01:30am 11.6 WSW 7 10 1007.3 - 0.0 - - - - - - -

Other Formats:

Comma delimited format used in spreadsheet applications
http://www.bom.gov.au/fwo/IDT60701/IDT60701.94987.axf

JavaScript Object Notation format (JSON) in row-major order
http://www.bom.gov.au/fwo/IDT60701/IDT60701.94987.json